Enterprise, Alabama
Current Conditions -  °F | °C
As of 12:36 PM on Monday 26 Jan 2015 (Local Time) from KSXS Reporting Station
Broken Clouds Broken Clouds  
Wind Chill: 44°   Ceiling: 3200
Heat Index: 48°   Visibility: 10mi
Dew Point: 36°   Wind: 10mph
Humidity: 62%   Direction: 310°NW
Pressure: 29.98"   Gusts: 24mph
Location:  31.32°N, 85.85°W
Report Text: KSXS 261836Z AUTO 31009G21KT 270V330 10SM SCT028 BKN032 09/02 A2998 RMK AO2
Loading
Personal Weather Stations






























Interactive Weather Map New forecast layout! Learn more

10-Day Weather Forecast

Advertisements
Track Severe Weather on mobile